sensor_id;sensor_type;location;lat;lon;timestamp;temperature;humidity
9095;DHT22;4583;49.796;9.902;2023-04-06T00:03:36;3.80;58.30
9095;DHT22;4583;49.796;9.902;2023-04-06T00:23:40;3.40;59.00
9095;DHT22;4583;49.796;9.902;2023-04-06T00:33:42;3.30;58.90
9095;DHT22;4583;49.796;9.902;2023-04-06T00:53:46;3.10;59.50
9095;DHT22;4583;49.796;9.902;2023-04-06T01:03:48;3.20;59.70
9095;DHT22;4583;49.796;9.902;2023-04-06T01:13:52;3.20;59.70
9095;DHT22;4583;49.796;9.902;2023-04-06T01:23:53;3.10;60.20
9095;DHT22;4583;49.796;9.902;2023-04-06T01:33:55;3.10;60.60
9095;DHT22;4583;49.796;9.902;2023-04-06T01:43:57;3.00;61.00
9095;DHT22;4583;49.796;9.902;2023-04-06T01:53:59;2.90;61.50
9095;DHT22;4583;49.796;9.902;2023-04-06T02:04:00;2.90;64.00
9095;DHT22;4583;49.796;9.902;2023-04-06T02:14:02;2.70;62.00
9095;DHT22;4583;49.796;9.902;2023-04-06T02:24:04;2.60;62.20
9095;DHT22;4583;49.796;9.902;2023-04-06T02:34:06;2.50;62.30
9095;DHT22;4583;49.796;9.902;2023-04-06T02:44:08;2.70;62.50
9095;DHT22;4583;49.796;9.902;2023-04-06T02:54:11;2.50;62.70
9095;DHT22;4583;49.796;9.902;2023-04-06T03:04:12;2.40;63.30
9095;DHT22;4583;49.796;9.902;2023-04-06T03:14:14;2.40;63.30
9095;DHT22;4583;49.796;9.902;2023-04-06T03:24:18;2.30;63.30
9095;DHT22;4583;49.796;9.902;2023-04-06T03:34:20;2.20;64.00
9095;DHT22;4583;49.796;9.902;2023-04-06T03:44:22;2.10;64.10
9095;DHT22;4583;49.796;9.902;2023-04-06T04:15:20;2.10;64.60
9095;DHT22;4583;49.796;9.902;2023-04-06T04:25:23;2.00;65.00
9095;DHT22;4583;49.796;9.902;2023-04-06T04:35:24;1.90;65.60
9095;DHT22;4583;49.796;9.902;2023-04-06T04:45:26;1.70;65.80
9095;DHT22;4583;49.796;9.902;2023-04-06T04:55:28;1.70;65.80
9095;DHT22;4583;49.796;9.902;2023-04-06T05:15:33;1.80;66.60
9095;DHT22;4583;49.796;9.902;2023-04-06T05:25:40;1.80;67.00
9095;DHT22;4583;49.796;9.902;2023-04-06T05:35:42;2.10;67.10
9095;DHT22;4583;49.796;9.902;2023-04-06T05:45:44;2.40;67.30
9095;DHT22;4583;49.796;9.902;2023-04-06T05:55:47;2.60;67.50
9095;DHT22;4583;49.796;9.902;2023-04-06T06:05:49;2.70;67.40
9095;DHT22;4583;49.796;9.902;2023-04-06T06:15:50;3.00;67.60
9095;DHT22;4583;49.796;9.902;2023-04-06T06:25:52;3.20;67.50
9095;DHT22;4583;49.796;9.902;2023-04-06T06:35:54;3.50;67.20
9095;DHT22;4583;49.796;9.902;2023-04-06T06:45:55;4.00;67.00
9095;DHT22;4583;49.796;9.902;2023-04-06T06:55:57;4.30;66.70
9095;DHT22;4583;49.796;9.902;2023-04-06T07:05:59;4.50;66.20
9095;DHT22;4583;49.796;9.902;2023-04-06T07:16:01;4.90;65.70
9095;DHT22;4583;49.796;9.902;2023-04-06T07:36:05;5.60;64.00
9095;DHT22;4583;49.796;9.902;2023-04-06T07:46:06;5.90;62.60
9095;DHT22;4583;49.796;9.902;2023-04-06T07:56:08;6.20;61.40
9095;DHT22;4583;49.796;9.902;2023-04-06T08:06:10;6.60;60.50
9095;DHT22;4583;49.796;9.902;2023-04-06T08:16:12;6.90;59.80
9095;DHT22;4583;49.796;9.902;2023-04-06T08:26:13;7.20;59.10
9095;DHT22;4583;49.796;9.902;2023-04-06T08:36:15;7.50;58.40
9095;DHT22;4583;49.796;9.902;2023-04-06T08:46:18;7.80;57.80
9095;DHT22;4583;49.796;9.902;2023-04-06T16:49:59;15.90;29.90
9095;DHT22;4583;49.796;9.902;2023-04-06T17:00:07;15.40;30.30
9095;DHT22;4583;49.796;9.902;2023-04-06T17:10:09;15.00;30.80
9095;DHT22;4583;49.796;9.902;2023-04-06T17:20:11;14.50;31.30
9095;DHT22;4583;49.796;9.902;2023-04-06T17:30:13;14.10;31.70
9095;DHT22;4583;49.796;9.902;2023-04-06T17:40:18;13.80;32.20
9095;DHT22;4583;49.796;9.902;2023-04-06T17:50:20;13.50;32.70
9095;DHT22;4583;49.796;9.902;2023-04-06T18:00:21;13.30;33.10
9095;DHT22;4583;49.796;9.902;2023-04-06T18:10:25;13.20;33.60
9095;DHT22;4583;49.796;9.902;2023-04-06T18:20:27;12.90;33.90
9095;DHT22;4583;49.796;9.902;2023-04-06T18:30:28;12.80;34.20
9095;DHT22;4583;49.796;9.902;2023-04-06T18:40:37;12.70;34.70
9095;DHT22;4583;49.796;9.902;2023-04-06T18:50:39;12.60;34.70
9095;DHT22;4583;49.796;9.902;2023-04-06T19:00:41;12.50;34.60
9095;DHT22;4583;49.796;9.902;2023-04-06T19:10:43;13.50;35.90
9095;DHT22;4583;49.796;9.902;2023-04-06T19:20:45;12.20;34.20
9095;DHT22;4583;49.796;9.902;2023-04-06T19:30:46;12.00;34.80
9095;DHT22;4583;49.796;9.902;2023-04-06T19:40:48;11.90;35.00
9095;DHT22;4583;49.796;9.902;2023-04-06T19:50:54;11.90;35.40
9095;DHT22;4583;49.796;9.902;2023-04-06T20:00:56;11.70;36.30
9095;DHT22;4583;49.796;9.902;2023-04-06T20:11:02;11.60;36.90
9095;DHT22;4583;49.796;9.902;2023-04-06T20:21:04;11.50;37.10
9095;DHT22;4583;49.796;9.902;2023-04-06T20:31:06;11.50;36.90
9095;DHT22;4583;49.796;9.902;2023-04-06T20:41:08;11.40;37.20
9095;DHT22;4583;49.796;9.902;2023-04-06T20:51:18;11.40;37.70
9095;DHT22;4583;49.796;9.902;2023-04-06T21:01:21;11.30;39.30
9095;DHT22;4583;49.796;9.902;2023-04-06T21:11:22;11.20;40.70
9095;DHT22;4583;49.796;9.902;2023-04-06T21:21:24;11.00;41.10
9095;DHT22;4583;49.796;9.902;2023-04-06T21:31:26;11.00;41.10
9095;DHT22;4583;49.796;9.902;2023-04-06T21:41:28;11.00;41.40
9095;DHT22;4583;49.796;9.902;2023-04-06T21:58:19;11.00;42.40
9095;DHT22;4583;49.796;9.902;2023-04-06T22:08:21;10.90;43.80
9095;DHT22;4583;49.796;9.902;2023-04-06T22:18:34;10.90;46.00
9095;DHT22;4583;49.796;9.902;2023-04-06T22:28:39;10.80;47.60
9095;DHT22;4583;49.796;9.902;2023-04-06T22:38:41;10.80;48.50
9095;DHT22;4583;49.796;9.902;2023-04-06T22:48:44;10.70;49.50
9095;DHT22;4583;49.796;9.902;2023-04-06T22:58:46;10.60;50.80
9095;DHT22;4583;49.796;9.902;2023-04-06T23:08:48;10.60;51.50
9095;DHT22;4583;49.796;9.902;2023-04-06T23:18:49;10.60;52.00
9095;DHT22;4583;49.796;9.902;2023-04-06T23:28:51;10.60;52.60
9095;DHT22;4583;49.796;9.902;2023-04-06T23:38:53;10.60;53.30
